Time;durP1;ratioP1;P1;durP2;ratioP2;P2;SDS_P1;SDS_P2;PMS_P1;PMS_P2;Temp;Humidity;BMP_temperature;BMP_pressure;BME280_temperature;BME280_humidity;BME280_pressure;Samples;Min_cycle;Max_cycle;Signal;HPM_P1;HPM_P2
2021/03/24 00:01:38;;;;;;;165.07;59.70;;;1.10;99.90;;;;;;4193742;28;20082;-83
2021/03/24 00:03:39;;;;;;;178.48;63.67;;;1.10;99.90;;;;;;4193723;28;20610;-83
2021/03/24 00:05:44;;;;;;;173.48;64.38;;;1.00;99.90;;;;;;4193210;28;20074;-83
2021/03/24 00:07:45;;;;;;;184.48;68.00;;;1.10;99.90;;;;;;4194943;28;20024;-83
2021/03/24 00:09:46;;;;;;;204.10;65.32;;;1.00;99.90;;;;;;4193463;28;20093;-84
2021/03/24 00:11:47;;;;;;;194.43;65.72;;;1.10;99.90;;;;;;4194959;28;20094;-83
2021/03/24 00:13:49;;;;;;;174.00;58.55;;;1.10;99.90;;;;;;4194897;28;20553;-83
2021/03/24 00:15:50;;;;;;;166.98;60.65;;;1.10;99.90;;;;;;4196350;28;20033;-82
2021/03/24 00:17:51;;;;;;;178.13;65.60;;;1.00;99.90;;;;;;4194871;28;20407;-82
2021/03/24 00:19:51;;;;;;;153.95;55.40;;;0.90;99.90;;;;;;4194982;28;20033;-82
2021/03/24 00:21:52;;;;;;;178.25;63.95;;;0.90;99.90;;;;;;4196277;28;20020;-82
2021/03/24 00:23:54;;;;;;;171.50;64.60;;;0.90;99.90;;;;;;4196621;28;20036;-82
2021/03/24 00:25:54;;;;;;;149.73;58.38;;;0.90;99.90;;;;;;4194734;28;20032;-82
2021/03/24 00:27:56;;;;;;;188.07;63.65;;;0.80;99.90;;;;;;4194721;28;20116;-82
2021/03/24 00:29:56;;;;;;;174.05;60.45;;;0.80;99.90;;;;;;4196402;28;20079;-82
2021/03/24 00:31:57;;;;;;;180.45;57.22;;;0.80;99.90;;;;;;4194760;28;20118;-82
2021/03/24 00:33:57;;;;;;;168.35;56.03;;;0.80;99.90;;;;;;4196254;28;20056;-82
2021/03/24 00:35:58;;;;;;;152.18;55.92;;;0.80;99.90;;;;;;4194650;28;20025;-82
2021/03/24 00:37:59;;;;;;;175.30;62.85;;;0.70;99.90;;;;;;4190016;28;20040;-82
2021/03/24 00:40:00;;;;;;;175.70;62.20;;;0.70;99.90;;;;;;4193186;28;20050;-82
2021/03/24 00:42:01;;;;;;;146.55;54.28;;;0.70;99.90;;;;;;4192418;28;20021;-81
2021/03/24 00:44:01;;;;;;;159.63;56.70;;;0.70;99.90;;;;;;4193656;28;20384;-82
2021/03/24 00:46:02;;;;;;;149.75;57.63;;;0.70;99.90;;;;;;4194018;28;20109;-82
2021/03/24 00:48:05;;;;;;;160.60;58.38;;;0.70;99.90;;;;;;4193866;28;20032;-82
2021/03/24 00:50:06;;;;;;;139.60;55.53;;;0.60;99.90;;;;;;4193013;28;20074;-82
2021/03/24 00:52:08;;;;;;;180.45;64.95;;;0.60;99.90;;;;;;4193158;28;20032;-82
2021/03/24 00:54:09;;;;;;;158.50;54.75;;;0.50;99.90;;;;;;4193039;28;20479;-82
2021/03/24 00:56:09;;;;;;;165.05;61.78;;;0.50;99.90;;;;;;4193200;28;20047;-82
2021/03/24 00:58:10;;;;;;;168.30;60.35;;;0.50;99.90;;;;;;4193649;28;20040;-83
2021/03/24 01:00:23;;;;;;;169.00;56.60;;;0.50;99.90;;;;;;4195711;28;20111;-82
2021/03/24 01:02:24;;;;;;;178.57;57.15;;;0.60;99.90;;;;;;4195737;28;20115;-82
2021/03/24 01:04:25;;;;;;;165.68;60.45;;;0.60;99.90;;;;;;4194185;28;20032;-82
2021/03/24 01:06:25;;;;;;;170.10;63.83;;;0.60;99.90;;;;;;4193540;28;20464;-83
2021/03/24 01:08:26;;;;;;;185.02;63.58;;;0.60;99.90;;;;;;4193840;28;20044;-83
2021/03/24 01:10:31;;;;;;;172.85;63.05;;;0.60;99.90;;;;;;4195693;28;20128;-80
2021/03/24 01:12:31;;;;;;;172.75;65.03;;;0.60;99.90;;;;;;4195205;28;20032;-82
2021/03/24 01:14:32;;;;;;;179.80;63.10;;;0.50;99.90;;;;;;4194014;28;20083;-82
2021/03/24 01:16:33;;;;;;;177.20;61.58;;;0.50;99.90;;;;;;4194264;28;20120;-80
2021/03/24 01:18:34;;;;;;;192.63;65.20;;;0.60;99.90;;;;;;4194098;28;20028;-82
2021/03/24 01:20:37;;;;;;;210.10;67.90;;;0.60;99.90;;;;;;4194349;28;20135;-82
2021/03/24 01:22:37;;;;;;;207.45;63.97;;;0.70;99.90;;;;;;4194217;28;20080;-81
2021/03/24 01:24:38;;;;;;;200.13;64.70;;;0.80;99.90;;;;;;4193693;28;20025;-81
2021/03/24 01:26:38;;;;;;;212.15;68.75;;;0.90;99.90;;;;;;4193362;28;20439;-81
2021/03/24 01:28:39;;;;;;;233.45;71.88;;;0.90;99.90;;;;;;4193169;28;20474;-81
2021/03/24 01:30:40;;;;;;;207.77;71.05;;;0.90;99.90;;;;;;4194293;28;20063;-82
2021/03/24 01:32:40;;;;;;;209.73;71.45;;;0.90;99.90;;;;;;4192119;28;20101;-82
2021/03/24 01:34:41;;;;;;;244.25;75.10;;;0.90;99.90;;;;;;4192377;28;20025;-82
2021/03/24 01:36:42;;;;;;;225.30;72.00;;;0.90;99.90;;;;;;4193898;28;20063;-82
2021/03/24 01:38:42;;;;;;;219.00;68.18;;;0.80;99.90;;;;;;4192624;28;20047;-82
2021/03/24 01:40:47;;;;;;;208.68;67.45;;;0.90;99.90;;;;;;4192275;28;20411;-82
2021/03/24 01:42:48;;;;;;;209.10;67.50;;;0.90;99.90;;;;;;4195184;28;20128;-82
2021/03/24 01:45:14;;;;;;;236.27;72.43;;;0.80;99.90;;;;;;4194465;28;20028;-82
2021/03/24 01:47:15;;;;;;;224.95;71.82;;;0.90;99.90;;;;;;4177334;28;20029;-81
2021/03/24 01:49:33;;;;;;;231.30;69.25;;;1.00;99.90;;;;;;4188730;28;20394;-82
2021/03/24 01:51:41;;;;;;;231.95;72.93;;;1.10;99.90;;;;;;4191484;28;20044;-82
2021/03/24 01:53:42;;;;;;;256.50;71.75;;;1.00;99.90;;;;;;4187644;28;20039;-82
2021/03/24 01:55:43;;;;;;;224.55;65.22;;;1.10;99.90;;;;;;4193470;28;20048;-82
2021/03/24 01:57:47;;;;;;;225.73;71.95;;;1.10;99.90;;;;;;4192046;28;20503;-82
2021/03/24 01:59:52;;;;;;;253.18;73.70;;;1.10;99.90;;;;;;4191834;28;20029;-82
2021/03/24 02:01:55;;;;;;;242.68;72.80;;;1.10;99.90;;;;;;4192040;28;20036;-82
2021/03/24 02:03:56;;;;;;;226.85;71.63;;;1.20;99.90;;;;;;4192155;28;20115;-82
2021/03/24 02:06:01;;;;;;;259.77;76.32;;;1.20;99.90;;;;;;4192343;28;20032;-82
2021/03/24 02:08:13;;;;;;;259.83;75.07;;;1.20;99.90;;;;;;4192079;28;20651;-82
2021/03/24 02:10:25;;;;;;;254.75;76.88;;;1.20;99.90;;;;;;4192471;28;20105;-82
2021/03/24 02:12:44;;;;;;;244.02;74.22;;;1.20;99.90;;;;;;4193879;28;20037;-82
2021/03/24 02:15:17;;;;;;;243.63;75.40;;;1.20;99.90;;;;;;4194191;28;20372;-82
2021/03/24 02:17:22;;;;;;;247.95;74.65;;;1.20;99.90;;;;;;4192612;28;20048;-82
2021/03/24 02:19:40;;;;;;;249.05;76.30;;;1.20;99.90;;;;;;4196270;28;20032;-83
2021/03/24 02:21:42;;;;;;;259.85;73.82;;;1.30;99.90;;;;;;4198568;28;20041;-83
2021/03/24 02:23:56;;;;;;;243.68;75.55;;;1.30;99.90;;;;;;4197474;28;20062;-83
2021/03/24 02:26:32;;;;;;;;;;;1.30;99.90;;;;;;4198925;28;20166;-82
2021/03/24 02:28:36;;;;;;;249.77;71.18;;;1.30;99.90;;;;;;4163049;28;20004;-82
2021/03/24 02:30:38;;;;;;;;;;;1.30;99.90;;;;;;4166339;28;20034;-83
2021/03/24 02:32:43;;;;;;;221.55;66.57;;;1.30;99.90;;;;;;4211113;28;19916;-83
2021/03/24 02:34:46;;;;;;;292.50;70.30;;;1.20;99.90;;;;;;4198449;28;20021;-82
2021/03/24 02:36:49;;;;;;;200.40;64.43;;;1.10;99.90;;;;;;4198533;28;20021;-82
2021/03/24 02:38:52;;;;;;;240.60;67.00;;;1.10;99.90;;;;;;4198641;28;20259;-82
2021/03/24 02:40:55;;;;;;;241.90;70.90;;;1.10;99.90;;;;;;4196915;28;20395;-82
2021/03/24 02:42:58;;;;;;;218.00;64.35;;;1.00;99.90;;;;;;4198535;28;20059;-82
2021/03/24 02:44:59;;;;;;;206.80;61.55;;;0.90;99.90;;;;;;4196298;28;20201;-83
2021/03/24 02:47:02;;;;;;;216.27;66.65;;;0.80;99.90;;;;;;4196986;28;20043;-82
2021/03/24 02:49:05;;;;;;;230.38;64.72;;;0.80;99.90;;;;;;4198021;28;20494;-82
2021/03/24 02:51:11;;;;;;;208.38;62.97;;;0.80;99.90;;;;;;4196474;28;20025;-82
2021/03/24 02:53:13;;;;;;;241.80;66.40;;;0.80;99.90;;;;;;4197373;28;20314;-82
2021/03/24 02:55:18;;;;;;;238.43;67.50;;;0.80;99.90;;;;;;4196949;28;20029;-82
2021/03/24 02:57:19;;;;;;;240.30;64.40;;;0.80;99.90;;;;;;4196519;28;20047;-82
2021/03/24 02:59:20;;;;;;;238.13;62.17;;;0.80;99.90;;;;;;4196766;28;20032;-83
2021/03/24 03:01:25;;;;;;;222.95;65.55;;;0.80;99.90;;;;;;4196448;28;20040;-83
2021/03/24 03:03:39;;;;;;;213.20;60.17;;;0.70;99.90;;;;;;4213211;28;20067;-83
2021/03/24 03:05:41;;;;;;;194.13;56.97;;;0.70;99.90;;;;;;4196659;28;20028;-82
2021/03/24 03:07:48;;;;;;;190.45;60.75;;;0.70;99.90;;;;;;4197945;28;20040;-82
2021/03/24 03:10:10;;;;;;;196.30;61.33;;;0.60;99.90;;;;;;4197679;28;20044;-82
2021/03/24 03:12:21;;;;;;;228.55;62.85;;;0.60;99.90;;;;;;4195045;28;20028;-82
2021/03/24 03:14:30;;;;;;;197.75;63.17;;;0.50;99.90;;;;;;4198045;28;20068;-82
2021/03/24 03:16:49;;;;;;;184.27;58.53;;;0.50;99.90;;;;;;4196621;28;20376;-82
2021/03/24 03:19:12;;;;;;;169.98;56.90;;;0.50;99.90;;;;;;4197560;28;20554;-83
2021/03/24 03:21:18;;;;;;;163.40;54.80;;;0.50;99.90;;;;;;4196413;28;20056;-83
2021/03/24 03:23:23;;;;;;;179.35;52.05;;;0.40;99.90;;;;;;4198098;28;20081;-83
2021/03/24 03:25:34;;;;;;;174.82;58.30;;;0.30;99.90;;;;;;4198115;28;20037;-84
2021/03/24 03:27:35;;;;;;;197.80;56.97;;;0.30;99.90;;;;;;4197458;28;20051;-84
2021/03/24 03:29:39;;;;;;;184.90;55.85;;;0.30;99.90;;;;;;4197520;28;20039;-81
2021/03/24 03:31:45;;;;;;;160.13;56.80;;;0.30;99.90;;;;;;4195862;28;20021;-81
2021/03/24 03:33:50;;;;;;;222.25;63.15;;;0.20;99.90;;;;;;4197673;28;20052;-82
2021/03/24 03:35:54;;;;;;;209.88;59.65;;;0.20;99.90;;;;;;4195778;28;20027;-82
2021/03/24 03:37:58;;;;;;;166.43;55.97;;;0.20;99.90;;;;;;4195946;28;20123;-82
2021/03/24 03:39:59;;;;;;;198.77;58.70;;;0.20;99.90;;;;;;4196073;28;20063;-82
2021/03/24 03:42:02;;;;;;;197.15;60.83;;;0.20;99.90;;;;;;4197385;28;20028;-82
2021/03/24 03:44:05;;;;;;;192.02;59.50;;;0.20;99.90;;;;;;4197121;28;20024;-82
2021/03/24 03:46:07;;;;;;;182.80;56.08;;;0.30;99.90;;;;;;4197418;28;20032;-83
2021/03/24 03:48:09;;;;;;;183.88;59.15;;;0.30;99.90;;;;;;4196365;28;20433;-83
2021/03/24 03:50:14;;;;;;;189.43;54.90;;;0.20;99.90;;;;;;4197291;28;20147;-83
2021/03/24 03:52:32;;;;;;;168.60;53.60;;;0.20;99.90;;;;;;4195903;28;20032;-82
2021/03/24 03:55:18;;;;;;;181.15;57.65;;;0.10;99.90;;;;;;4195135;28;20040;-82
2021/03/24 03:57:43;;;;;;;167.95;50.80;;;0.10;99.90;;;;;;4143007;28;20029;-83
2021/03/24 03:59:44;;;;;;;205.02;59.42;;;0.10;99.90;;;;;;4195501;28;20033;-83
2021/03/24 04:01:50;;;;;;;207.98;62.70;;;0.10;99.90;;;;;;4197164;28;20058;-83
2021/03/24 04:03:54;;;;;;;220.95;65.70;;;0.20;99.90;;;;;;4195576;28;20040;-80
2021/03/24 04:05:57;;;;;;;;;;;0.30;99.90;;;;;;4197500;28;20028;-82
2021/03/24 04:08:12;;;;;;;204.65;58.15;;;0.30;99.90;;;;;;4197035;28;19942;-82
2021/03/24 04:10:14;;;;;;;199.55;61.03;;;0.30;99.90;;;;;;4192618;28;20108;-82
2021/03/24 04:12:16;;;;;;;210.43;64.45;;;0.30;99.90;;;;;;4195329;28;20506;-82
2021/03/24 04:14:22;;;;;;;197.98;62.60;;;0.30;99.90;;;;;;4195520;28;20020;-82
2021/03/24 04:16:27;;;;;;;202.15;60.88;;;0.30;99.90;;;;;;4195203;28;20040;-82
2021/03/24 04:18:40;;;;;;;202.85;65.47;;;0.30;99.90;;;;;;4195691;28;20040;-82
2021/03/24 04:20:42;;;;;;;196.40;64.20;;;0.30;99.90;;;;;;4196729;28;20043;-82
2021/03/24 04:22:47;;;;;;;202.23;66.70;;;0.30;99.90;;;;;;4191951;28;20282;-82
2021/03/24 04:24:51;;;;;;;206.20;63.60;;;0.40;99.90;;;;;;4195477;28;20033;-82
2021/03/24 04:26:56;;;;;;;200.27;60.35;;;0.40;99.90;;;;;;4195609;28;20116;-82
2021/03/24 04:29:01;;;;;;;207.32;56.97;;;0.30;99.90;;;;;;4196533;28;20033;-82
2021/03/24 04:31:07;;;;;;;192.95;62.60;;;0.20;99.90;;;;;;4181712;28;20118;-82
2021/03/24 04:33:08;;;;;;;199.27;60.30;;;0.20;99.90;;;;;;4196132;28;20063;-82
2021/03/24 04:35:14;;;;;;;213.68;62.55;;;0.10;99.90;;;;;;4195075;28;20029;-82
2021/03/24 04:37:33;;;;;;;227.80;67.03;;;0.10;99.90;;;;;;4196570;28;20086;-83
2021/03/24 04:39:47;;;;;;;225.88;62.75;;;0.00;99.90;;;;;;4179351;28;20112;-82
2021/03/24 04:41:49;;;;;;;229.38;62.97;;;0.10;99.90;;;;;;4198878;28;20477;-81
2021/03/24 04:44:06;;;;;;;209.57;62.72;;;0.20;99.90;;;;;;4192925;28;20040;-83
2021/03/24 04:46:29;;;;;;;214.32;64.90;;;0.20;99.90;;;;;;4192732;28;20027;-80
2021/03/24 04:48:41;;;;;;;223.23;60.67;;;0.20;99.90;;;;;;4194511;28;20086;-82
2021/03/24 04:51:12;;;;;;;188.90;60.95;;;0.20;99.90;;;;;;4192961;28;20020;-82
2021/03/24 04:53:17;;;;;;;211.73;67.57;;;0.20;99.90;;;;;;4156567;28;20066;-82
2021/03/24 04:55:23;;;;;;;220.32;62.40;;;0.20;99.90;;;;;;4192843;28;20024;-82
2021/03/24 04:57:26;;;;;;;234.68;66.72;;;0.20;99.90;;;;;;4192885;28;20709;-81
2021/03/24 04:59:31;;;;;;;242.77;68.40;;;0.20;99.90;;;;;;4195619;28;20123;-83
2021/03/24 05:02:10;;;;;;;264.20;68.93;;;0.20;99.90;;;;;;4199779;28;20119;-82
2021/03/24 05:04:34;;;;;;;240.70;63.83;;;0.20;99.90;;;;;;4144812;28;20387;-82
2021/03/24 05:06:38;;;;;;;246.35;66.60;;;0.20;99.90;;;;;;4194365;28;20036;-82
2021/03/24 05:08:41;;;;;;;207.40;65.07;;;0.20;99.90;;;;;;4193539;28;20023;-82
2021/03/24 05:10:42;;;;;;;225.70;66.68;;;0.20;99.90;;;;;;4193978;28;20120;-83
2021/03/24 05:12:49;;;;;;;245.55;67.57;;;0.20;99.90;;;;;;4195896;28;20040;-83
2021/03/24 05:15:01;;;;;;;235.63;69.20;;;0.30;99.90;;;;;;4196010;28;20150;-83
2021/03/24 05:17:24;;;;;;;216.40;67.18;;;0.30;99.90;;;;;;4195594;28;20044;-82
2021/03/24 05:19:28;;;;;;;210.25;65.95;;;0.30;99.90;;;;;;4184466;28;20055;-83
2021/03/24 05:21:55;;;;;;;221.65;65.40;;;0.20;99.90;;;;;;4194868;28;20036;-81
2021/03/24 05:23:57;;;;;;;210.65;66.00;;;0.20;99.90;;;;;;4194112;28;20111;-82
2021/03/24 05:26:27;;;;;;;190.80;63.28;;;0.20;99.90;;;;;;4194595;28;20074;-82
2021/03/24 05:28:44;;;;;;;224.05;64.95;;;0.10;99.90;;;;;;4195171;28;20040;-82
2021/03/24 05:31:02;;;;;;;211.13;67.78;;;0.00;99.90;;;;;;4195809;28;20040;-82
2021/03/24 05:33:05;;;;;;;245.52;70.10;;;-0.10;99.90;;;;;;4195832;28;20116;-82
2021/03/24 05:35:30;;;;;;;250.87;69.50;;;0.00;99.90;;;;;;4194650;28;20060;-82
2021/03/24 05:37:32;;;;;;;214.43;69.28;;;0.10;99.90;;;;;;4193975;28;20067;-82
2021/03/24 05:39:35;;;;;;;245.60;68.43;;;0.20;99.90;;;;;;4195643;28;20095;-81
2021/03/24 05:42:14;;;;;;;220.57;69.57;;;0.20;99.90;;;;;;4195465;28;20040;-82
2021/03/24 05:44:24;;;;;;;220.15;68.97;;;0.10;99.90;;;;;;4193628;28;20029;-82
2021/03/24 05:47:00;;;;;;;230.15;65.72;;;0.10;99.90;;;;;;4180776;28;20040;-82
2021/03/24 05:49:16;;;;;;;224.98;64.75;;;0.00;99.90;;;;;;4184264;28;20044;-82
2021/03/24 05:51:25;;;;;;;206.77;66.38;;;0.00;99.90;;;;;;4209611;28;20055;-82
2021/03/24 05:53:52;;;;;;;213.77;70.43;;;0.00;99.90;;;;;;4202536;28;20414;-82
2021/03/24 05:56:31;;;;;;;233.55;66.78;;;0.00;99.90;;;;;;4194412;28;20138;-81
2021/03/24 05:58:41;;;;;;;228.60;69.07;;;0.00;99.90;;;;;;4183802;28;20086;-82
2021/03/24 06:00:56;;;;;;;228.75;70.25;;;0.00;99.90;;;;;;4193980;28;20040;-82
2021/03/24 06:03:09;;;;;;;269.95;74.25;;;0.10;99.90;;;;;;4193577;28;20593;-82
2021/03/24 06:05:30;;;;;;;265.45;77.93;;;0.20;99.90;;;;;;4192497;28;20033;-82
2021/03/24 06:07:49;;;;;;;290.23;76.45;;;0.20;99.90;;;;;;4187331;28;20040;-82
2021/03/24 06:10:08;;;;;;;262.13;78.20;;;0.40;99.90;;;;;;4197734;28;20046;-82
2021/03/24 06:12:28;;;;;;;278.45;76.40;;;0.50;99.90;;;;;;4194396;28;20085;-82
2021/03/24 06:14:57;;;;;;;280.70;75.80;;;0.50;99.90;;;;;;4194149;28;20040;-82
2021/03/24 06:17:18;;;;;;;273.08;78.63;;;0.60;99.90;;;;;;4196154;28;20102;-82
2021/03/24 06:19:37;;;;;;;271.45;83.38;;;0.60;99.90;;;;;;4197056;28;20032;-83
2021/03/24 06:21:49;;;;;;;349.13;91.28;;;0.50;99.90;;;;;;4194917;28;20040;-84
2021/03/24 06:24:10;;;;;;;283.88;87.50;;;0.90;99.90;;;;;;4194009;28;20139;-82
2021/03/24 06:26:42;;;;;;;305.45;92.10;;;1.10;99.90;;;;;;4188750;28;20028;-82
2021/03/24 06:28:58;;;;;;;282.95;89.88;;;1.10;99.90;;;;;;4192644;28;20032;-82
2021/03/24 06:31:11;;;;;;;322.60;95.13;;;1.20;99.90;;;;;;4192101;28;20028;-83
2021/03/24 06:33:27;;;;;;;322.50;98.35;;;1.30;99.90;;;;;;4195947;28;20039;-82
2021/03/24 06:35:54;;;;;;;283.30;95.47;;;1.50;99.90;;;;;;4209921;28;20036;-83
2021/03/24 06:38:17;;;;;;;286.65;97.05;;;1.90;99.90;;;;;;4195284;28;20043;-83
2021/03/24 06:40:36;;;;;;;330.77;98.07;;;1.80;99.90;;;;;;4193367;28;20106;-83
2021/03/24 06:42:43;;;;;;;303.50;99.72;;;1.90;99.90;;;;;;4195104;28;20032;-83
2021/03/24 06:44:58;;;;;;;327.33;106.47;;;2.00;99.90;;;;;;4193813;28;20021;-83
2021/03/24 06:47:23;;;;;;;329.13;107.88;;;2.20;99.90;;;;;;4194105;28;20032;-83
2021/03/24 06:49:37;;;;;;;348.10;106.30;;;2.30;99.90;;;;;;4190634;28;20028;-83
2021/03/24 06:51:56;;;;;;;297.85;104.28;;;2.30;99.90;;;;;;4191096;28;20112;-82
2021/03/24 06:54:15;;;;;;;323.33;107.53;;;2.40;99.90;;;;;;4207531;28;20024;-83
2021/03/24 06:56:49;;;;;;;329.17;106.20;;;2.40;99.90;;;;;;4192758;28;20032;-83
2021/03/24 06:59:25;;;;;;;338.40;107.40;;;2.50;99.90;;;;;;4193927;28;20410;-83
2021/03/24 07:01:46;;;;;;;307.00;103.80;;;2.60;99.90;;;;;;4196029;28;20293;-82
2021/03/24 07:04:22;;;;;;;338.65;106.70;;;2.80;99.90;;;;;;4195516;28;20136;-82
2021/03/24 07:06:54;;;;;;;292.92;102.78;;;2.90;99.90;;;;;;4198471;28;20025;-82
2021/03/24 07:09:09;;;;;;;302.15;100.95;;;3.00;99.90;;;;;;4149524;28;20047;-83
2021/03/24 07:11:18;;;;;;;316.33;111.22;;;3.30;99.90;;;;;;4215260;28;20024;-82
2021/03/24 07:13:45;;;;;;;313.40;111.45;;;3.40;99.90;;;;;;4199975;28;20025;-81
2021/03/24 07:15:56;;;;;;;298.70;108.05;;;3.60;99.90;;;;;;4198723;28;20033;-83
2021/03/24 07:18:17;;;;;;;313.25;110.05;;;3.70;99.90;;;;;;4200214;28;20048;-83
2021/03/24 07:20:42;;;;;;;307.83;105.47;;;3.80;99.90;;;;;;4175898;28;20133;-82
2021/03/24 07:23:13;;;;;;;303.88;106.88;;;3.90;99.90;;;;;;4200377;28;20028;-83
2021/03/24 07:25:25;;;;;;;282.10;107.15;;;4.00;99.90;;;;;;4196239;28;20032;-82
2021/03/24 07:27:41;;;;;;;292.20;96.32;;;4.10;99.90;;;;;;4195236;28;20043;-82
2021/03/24 07:30:23;;;;;;;302.23;99.78;;;4.20;99.90;;;;;;4195885;28;20059;-81
2021/03/24 07:32:32;;;;;;;288.58;103.35;;;4.30;99.90;;;;;;4145659;28;20059;-81
2021/03/24 07:34:51;;;;;;;282.02;103.30;;;4.40;99.90;;;;;;4197419;28;20078;-81
2021/03/24 07:37:26;;;;;;;278.00;107.70;;;4.50;99.90;;;;;;4196095;28;20728;-80
2021/03/24 07:39:40;;;;;;;287.92;104.55;;;4.60;99.90;;;;;;4195658;28;20491;-81
2021/03/24 07:42:01;;;;;;;265.85;98.93;;;4.70;99.90;;;;;;4202204;28;20044;-81
2021/03/24 07:44:11;;;;;;;271.67;96.50;;;4.70;99.90;;;;;;4195459;28;20035;-81
2021/03/24 07:46:35;;;;;;;262.13;105.97;;;4.90;99.90;;;;;;4196309;28;20033;-81
2021/03/24 07:48:58;;;;;;;254.32;95.40;;;5.00;99.90;;;;;;4191078;28;20043;-81
2021/03/24 07:51:13;;;;;;;242.13;97.28;;;5.00;99.90;;;;;;4194001;28;20127;-81
2021/03/24 07:53:27;;;;;;;267.73;102.00;;;5.10;99.90;;;;;;4216441;28;20028;-82
2021/03/24 07:55:35;;;;;;;251.57;100.53;;;5.20;99.90;;;;;;4191435;28;20028;-81
2021/03/24 07:57:50;;;;;;;242.23;99.32;;;5.30;99.90;;;;;;4196147;28;20040;-81
2021/03/24 08:00:05;;;;;;;249.32;94.55;;;5.40;99.90;;;;;;4195973;28;20044;-81
2021/03/24 08:02:40;;;;;;;249.88;99.57;;;5.50;99.90;;;;;;4195877;28;20503;-81
2021/03/24 08:05:14;;;;;;;247.98;91.78;;;5.70;99.90;;;;;;4212665;28;20032;-81
2021/03/24 08:07:36;;;;;;;248.85;100.03;;;5.80;99.90;;;;;;4186059;28;20244;-81
2021/03/24 08:10:14;;;;;;;250.00;101.70;;;5.90;99.90;;;;;;4195618;28;20029;-81
2021/03/24 08:12:40;;;;;;;220.95;93.05;;;6.00;99.90;;;;;;4164384;28;20188;-81
2021/03/24 08:15:14;;;;;;;238.90;97.95;;;6.20;99.90;;;;;;4191772;28;20107;-82
2021/03/24 08:17:29;;;;;;;223.10;96.03;;;6.30;99.90;;;;;;4193894;28;20064;-80
2021/03/24 08:20:12;;;;;;;225.57;94.13;;;6.40;99.90;;;;;;4195576;28;20044;-81
2021/03/24 08:22:41;;;;;;;218.88;89.65;;;6.50;99.90;;;;;;4194520;28;20059;-81
2021/03/24 08:24:57;;;;;;;218.10;94.85;;;6.60;99.90;;;;;;4195489;28;20514;-81
2021/03/24 08:27:03;;;;;;;212.95;93.68;;;6.80;99.90;;;;;;4195641;28;20037;-80
2021/03/24 08:29:15;;;;;;;199.18;90.75;;;6.90;99.90;;;;;;4194927;28;20039;-82
2021/03/24 08:31:53;;;;;;;197.85;84.95;;;7.00;99.90;;;;;;4195180;28;20035;-81
2021/03/24 08:34:26;;;;;;;183.52;88.40;;;7.10;99.90;;;;;;4191254;28;20071;-81
2021/03/24 08:36:51;;;;;;;174.50;79.15;;;7.20;99.90;;;;;;4186671;28;20093;-82
2021/03/24 08:39:19;;;;;;;189.80;81.45;;;7.40;99.90;;;;;;4212332;28;20028;-81
2021/03/24 08:41:27;;;;;;;188.63;91.30;;;7.70;99.90;;;;;;4187187;28;20114;-82
2021/03/24 08:44:00;;;;;;;171.80;84.68;;;7.60;99.90;;;;;;4198111;28;20060;-81
2021/03/24 08:46:18;;;;;;;177.20;86.55;;;7.70;99.90;;;;;;4160883;28;20523;-81
2021/03/24 08:48:44;;;;;;;171.77;86.32;;;7.80;99.90;;;;;;4192678;28;20020;-81
2021/03/24 08:50:56;;;;;;;159.30;83.55;;;8.00;99.90;;;;;;4183902;28;20667;-81
2021/03/24 08:53:21;;;;;;;146.40;79.00;;;8.10;99.90;;;;;;4193409;28;20056;-81
2021/03/24 08:55:44;;;;;;;149.75;78.10;;;8.30;99.90;;;;;;4194541;28;20028;-81
2021/03/24 08:58:18;;;;;;;152.50;77.80;;;8.40;99.90;;;;;;4194100;28;20036;-81
2021/03/24 09:00:42;;;;;;;136.27;73.80;;;8.50;99.90;;;;;;4189730;28;20043;-81
2021/03/24 09:03:11;;;;;;;140.75;75.10;;;8.60;99.90;;;;;;4189502;28;20031;-81
2021/03/24 09:05:15;;;;;;;139.43;77.53;;;8.80;99.90;;;;;;4190240;28;20475;-82
2021/03/24 09:07:43;;;;;;;128.15;76.00;;;9.00;99.90;;;;;;4193822;28;20028;-81
2021/03/24 09:10:17;;;;;;;118.40;72.05;;;9.10;99.90;;;;;;4195026;28;20028;-80
2021/03/24 09:12:23;;;;;;;124.22;70.53;;;9.20;99.90;;;;;;4195034;28;20021;-79
2021/03/24 09:14:30;;;;;;;119.15;75.32;;;9.30;99.90;;;;;;4195867;28;20036;-81
2021/03/24 09:16:46;;;;;;;106.63;63.78;;;9.40;99.90;;;;;;4195682;28;20068;-81
2021/03/24 09:19:12;;;;;;;104.35;64.00;;;9.60;99.90;;;;;;4195224;28;20033;-81
2021/03/24 09:21:22;;;;;;;110.68;67.07;;;9.60;99.90;;;;;;4187070;28;20146;-81
2021/03/24 09:23:52;;;;;;;101.93;62.40;;;10.10;99.90;;;;;;4194377;28;20115;-83
2021/03/24 09:26:21;;;;;;;111.57;69.70;;;10.00;99.90;;;;;;4198229;28;20124;-82
2021/03/24 09:28:39;;;;;;;102.93;63.13;;;10.10;99.90;;;;;;4185530;28;20400;-82
2021/03/24 09:31:09;;;;;;;105.60;64.63;;;10.40;99.90;;;;;;4194589;28;20033;-83
2021/03/24 09:33:47;;;;;;;99.60;61.05;;;10.60;99.90;;;;;;4193077;28;20064;-83
2021/03/24 09:36:15;;;;;;;98.28;63.65;;;10.70;99.90;;;;;;4193636;28;20407;-82
2021/03/24 09:38:24;;;;;;;94.78;63.00;;;10.80;99.90;;;;;;4196462;28;20031;-82
2021/03/24 09:40:43;;;;;;;101.05;64.05;;;11.20;99.90;;;;;;4195437;28;20044;-81
2021/03/24 09:42:50;;;;;;;99.00;64.38;;;11.20;99.90;;;;;;4194644;28;20024;-82
2021/03/24 09:44:53;;;;;;;91.95;58.10;;;11.50;99.90;;;;;;4194800;28;20028;-82
2021/03/24 09:46:56;;;;;;;88.85;58.50;;;11.70;99.90;;;;;;4193990;28;20043;-82
2021/03/24 09:49:00;;;;;;;90.10;61.15;;;11.80;99.90;;;;;;4194702;28;20077;-82
2021/03/24 09:51:15;;;;;;;93.45;62.08;;;12.00;99.90;;;;;;4194256;28;20028;-82
2021/03/24 09:53:26;;;;;;;85.80;52.42;;;12.30;99.90;;;;;;4192783;28;20221;-81
2021/03/24 09:55:44;;;;;;;88.57;59.17;;;12.50;99.90;;;;;;4189214;28;20078;-82
2021/03/24 09:58:12;;;;;;;86.95;56.85;;;12.50;99.90;;;;;;4183976;28;20060;-82
2021/03/24 10:00:18;;;;;;;84.82;55.08;;;12.80;99.90;;;;;;4192514;28;20112;-82
2021/03/24 10:02:25;;;;;;;81.78;55.17;;;;;;;;;;4182295;28;20036;-82
2021/03/24 10:04:47;;;;;;;75.13;48.00;;;13.10;99.90;;;;;;4187719;28;20029;-82
2021/03/24 10:06:57;;;;;;;69.80;46.83;;;12.30;99.90;;;;;;4190681;28;20087;-82
2021/03/24 10:09:06;;;;;;;75.22;51.60;;;13.60;99.90;;;;;;4181882;28;20036;-82
2021/03/24 10:11:11;;;;;;;78.35;51.13;;;13.70;99.90;;;;;;4193175;28;20119;-82
2021/03/24 10:13:25;;;;;;;77.57;49.92;;;14.00;99.90;;;;;;4193812;28;20060;-83
2021/03/24 10:15:36;;;;;;;78.50;51.45;;;14.10;99.90;;;;;;4194998;28;20136;-82
2021/03/24 10:17:52;;;;;;;78.70;51.45;;;14.10;99.90;;;;;;4193364;28;20519;-83
2021/03/24 10:20:18;;;;;;;72.70;46.85;;;14.20;99.90;;;;;;4193503;28;20466;-82
2021/03/24 10:22:32;;;;;;;74.47;45.60;;;14.50;99.90;;;;;;4181843;28;20025;-82
2021/03/24 10:24:52;;;;;;;;;;;14.00;99.90;;;;;;4194134;28;20174;-83
2021/03/24 10:27:03;;;;;;;86.75;53.70;;;14.70;99.90;;;;;;4151109;28;19944;-81
2021/03/24 10:29:11;;;;;;;80.45;51.75;;;14.90;99.90;;;;;;4191700;28;20025;-82
2021/03/24 10:31:22;;;;;;;78.85;53.67;;;15.00;99.90;;;;;;4192095;28;20085;-82
2021/03/24 10:33:37;;;;;;;78.22;50.53;;;15.10;99.90;;;;;;4190274;28;20024;-82
2021/03/24 10:35:54;;;;;;;77.10;52.35;;;15.10;99.90;;;;;;4182591;28;20020;-81
2021/03/24 10:38:16;;;;;;;76.25;49.63;;;15.10;99.90;;;;;;4191985;28;20578;-82
2021/03/24 10:40:33;;;;;;;78.03;52.10;;;15.40;99.90;;;;;;4189941;28;20041;-82
2021/03/24 10:42:47;;;;;;;74.30;47.97;;;15.50;99.90;;;;;;4188708;28;20075;-81
2021/03/24 10:45:22;;;;;;;70.18;48.08;;;15.50;99.90;;;;;;4195658;28;20493;-82
2021/03/24 10:47:48;;;;;;;76.15;48.83;;;15.10;99.90;;;;;;4195027;28;20029;-81
2021/03/24 10:50:11;;;;;;;63.20;45.47;;;14.70;99.90;;;;;;4168696;28;20025;-82
2021/03/24 10:52:22;;;;;;;72.53;45.88;;;15.20;99.90;;;;;;4192817;28;20048;-82
2021/03/24 10:54:40;;;;;;;69.82;46.65;;;15.30;99.90;;;;;;4189928;28;20041;-82
2021/03/24 10:57:11;;;;;;;68.43;40.92;;;15.30;99.90;;;;;;4188569;28;20479;-82
2021/03/24 10:59:20;;;;;;;66.13;46.05;;;16.30;99.90;;;;;;4193621;28;20044;-82
2021/03/24 11:02:16;;;;;;;68.28;45.13;;;16.60;99.90;;;;;;4192216;28;20107;-82
2021/03/24 11:04:21;;;;;;;69.32;45.40;;;17.00;99.90;;;;;;4139803;28;20050;-82
2021/03/24 11:06:25;;;;;;;70.22;46.90;;;17.00;99.90;;;;;;4119989;28;20540;-82
2021/03/24 11:08:52;;;;;;;59.13;39.60;;;17.10;99.90;;;;;;4140401;28;20038;-82
2021/03/24 11:11:11;;;;;;;64.88;40.90;;;17.20;99.90;;;;;;4193986;28;20056;-83
2021/03/24 11:13:26;;;;;;;57.92;34.40;;;17.20;99.90;;;;;;4192202;28;20166;-81
2021/03/24 11:15:57;;;;;;;56.22;39.33;;;17.10;99.90;;;;;;4189529;28;20041;-79